Time;durP1;ratioP1;P1;durP2;ratioP2;P2;SDS_P1;SDS_P2;PMS_P1;PMS_P2;Temp;Humidity;BMP_temperature;BMP_pressure;BME280_temperature;BME280_humidity;BME280_pressure;Samples;Min_cycle;Max_cycle;Signal;HPM_P1;HPM_P2
2021/12/17 00:04:39;;;;;;;16.52;9.57;;;;;;;7.02;98.57;102655.13;5117191;28;20067;-50
2021/12/17 00:07:11;;;;;;;15.50;9.43;;;;;;;7.04;98.25;102653.34;5116289;28;20081;-51
2021/12/17 00:09:40;;;;;;;18.45;9.93;;;;;;;7.04;98.22;102661.28;5116571;28;20062;-51
2021/12/17 00:12:11;;;;;;;15.57;9.85;;;;;;;7.01;98.36;102642.84;5116655;27;20495;-50
2021/12/17 00:14:41;;;;;;;16.98;10.63;;;;;;;7.02;97.49;102648.97;5116352;28;20051;-48
2021/12/17 00:17:13;;;;;;;17.90;9.95;;;;;;;7.01;97.96;102661.31;5116099;28;20502;-52
2021/12/17 00:19:59;;;;;;;13.52;9.23;;;;;;;7.01;98.00;102661.31;5116927;28;20062;-50
2021/12/17 00:50:57;;;;;;;17.83;9.35;;;;;;;7.06;97.31;102654.19;5116485;28;20464;-49
2021/12/17 00:53:27;;;;;;;18.15;9.13;;;;;;;6.87;97.52;102650.03;5115646;28;20060;-49
2021/12/17 00:55:57;;;;;;;18.02;9.40;;;;;;;6.63;98.28;102652.09;5115362;28;20063;-51
2021/12/17 00:58:25;;;;;;;17.70;9.40;;;;;;;6.42;99.05;102652.31;5115763;28;20467;-49
2021/12/17 01:00:53;;;;;;;20.02;9.40;;;;;;;6.16;99.66;102645.56;5115944;28;20060;-51
2021/12/17 01:03:22;;;;;;;18.27;10.45;;;;;;;5.97;100.00;102642.22;5115171;28;20098;-49
2021/12/17 01:05:50;;;;;;;16.48;10.05;;;;;;;5.81;100.00;102641.44;5115373;28;20059;-50
2021/12/17 01:08:18;;;;;;;21.83;11.10;;;;;;;5.59;100.00;102646.84;5115638;28;20138;-52
2021/12/17 01:10:50;;;;;;;16.65;10.48;;;;;;;5.44;100.00;102631.16;5115149;28;20526;-49
2021/12/17 01:13:20;;;;;;;19.83;10.88;;;;;;;5.36;100.00;102632.97;5115291;28;20054;-52
2021/12/17 01:15:48;;;;;;;21.10;11.02;;;;;;;5.28;100.00;102629.50;5116196;27;20066;-50
2021/12/17 01:18:22;;;;;;;;;;;;;;;5.18;100.00;102626.09;5116772;28;20095;-50
2021/12/17 01:21:19;;;;;;;20.25;10.82;;;;;;;5.02;100.00;102617.41;5114839;28;19967;-49
2021/12/17 01:24:05;;;;;;;22.60;11.40;;;;;;;4.98;100.00;102628.84;5115682;28;20058;-49
2021/12/17 01:43:21;;;;;;;19.70;11.27;;;;;;;4.31;100.00;102633.44;5114762;28;20503;-50
2021/12/17 01:45:51;;;;;;;22.23;11.23;;;;;;;4.22;100.00;102628.19;5114871;28;20410;-52
2021/12/17 01:48:25;;;;;;;22.52;12.55;;;;;;;4.11;100.00;102629.97;5115127;28;20118;-49
2021/12/17 01:59:29;;;;;;;23.63;11.93;;;;;;;3.89;100.00;102630.00;5112224;28;20067;-52
2021/12/17 02:02:03;;;;;;;24.30;11.88;;;;;;;3.84;100.00;102616.84;5115495;28;20059;-50
2021/12/17 02:04:32;;;;;;;19.10;11.43;;;;;;;3.77;100.00;102619.50;5114900;28;20058;-48
2021/12/17 02:07:01;;;;;;;25.58;12.50;;;;;;;3.71;100.00;102626.47;5115112;28;20056;-52
2021/12/17 02:12:28;;;;;;;20.63;11.55;;;;;;;3.66;100.00;102628.22;5114170;28;20064;-50
2021/12/17 02:21:12;;;;;;;23.75;14.45;;;;;;;3.48;100.00;102607.22;5114147;28;20055;-50
2021/12/17 02:29:42;;;;;;;21.60;13.23;;;;;;;3.60;100.00;102628.22;5075472;28;20064;-50
2021/12/17 02:32:11;;;;;;;24.30;13.23;;;;;;;3.57;100.00;102628.22;5114233;28;20056;-52
2021/12/17 02:35:00;;;;;;;24.92;12.88;;;;;;;3.58;100.00;102629.09;5114074;28;20052;-51
2021/12/17 02:37:32;;;;;;;27.48;14.07;;;;;;;3.53;100.00;102626.47;5115213;28;20064;-50
2021/12/17 02:40:14;;;;;;;26.05;13.80;;;;;;;3.48;100.00;102620.31;5114918;28;20056;-51
2021/12/17 02:45:34;;;;;;;25.88;13.88;;;;;;;3.51;100.00;102617.72;5056703;28;20057;-51
2021/12/17 02:48:05;;;;;;;27.20;14.48;;;;;;;3.54;100.00;102615.09;5115360;28;20390;-51
2021/12/17 02:50:34;;;;;;;32.65;15.70;;;;;;;3.54;100.00;102612.47;5114144;28;20104;-49
2021/12/17 02:53:07;;;;;;;24.73;14.00;;;;;;;3.47;100.00;102615.97;5114839;28;20055;-49
2021/12/17 02:55:37;;;;;;;23.27;13.35;;;;;;;3.46;100.00;102607.25;5115309;28;20373;-51
2021/12/17 02:58:07;;;;;;;29.92;15.07;;;;;;;3.44;100.00;102601.09;5117544;28;20055;-52
2021/12/17 03:00:37;;;;;;;26.15;14.27;;;;;;;3.48;100.00;102599.34;5118815;28;20051;-51
2021/12/17 03:03:07;;;;;;;31.35;14.38;;;;;;;3.46;100.00;102599.38;5117521;28;20060;-49
2021/12/17 03:05:38;;;;;;;26.40;14.07;;;;;;;3.44;100.00;102600.22;5117772;28;20056;-51
2021/12/17 03:08:13;;;;;;;25.37;13.97;;;;;;;3.45;100.00;102591.50;5117790;28;20056;-48
2021/12/17 03:10:41;;;;;;;36.17;14.98;;;;;;;3.38;100.00;102597.56;5119103;28;20395;-51
2021/12/17 03:13:11;;;;;;;31.92;15.07;;;;;;;3.34;100.00;102600.19;5117519;28;20066;-50
2021/12/17 03:15:45;;;;;;;25.88;14.73;;;;;;;3.34;100.00;102594.94;5117655;27;20058;-50
2021/12/17 03:23:51;;;;;;;30.17;15.57;;;;;;;3.44;100.00;102590.59;5117943;28;20051;-50
2021/12/17 03:26:21;;;;;;;36.90;17.08;;;;;;;3.46;100.00;102591.50;5118589;28;20384;-49
2021/12/17 03:28:51;;;;;;;39.17;17.40;;;;;;;3.46;100.00;102583.63;5117618;28;20063;-48
2021/12/17 03:31:22;;;;;;;34.30;16.85;;;;;;;3.46;100.00;102587.97;5118331;28;20052;-51
2021/12/17 03:33:52;;;;;;;36.03;17.83;;;;;;;3.54;100.00;102586.22;5117858;28;20055;-50
2021/12/17 03:36:21;;;;;;;43.47;18.70;;;;;;;3.61;100.00;102587.97;5117783;28;20086;-50
2021/12/17 03:38:51;;;;;;;39.35;19.08;;;;;;;3.64;100.00;102587.97;5117387;28;20067;-50
2021/12/17 03:41:23;;;;;;;35.80;18.27;;;;;;;3.70;100.00;102592.38;5118127;28;20055;-50
2021/12/17 03:43:53;;;;;;;46.93;20.10;;;;;;;3.65;100.00;102581.88;5117103;27;20058;-50
2021/12/17 03:46:22;;;;;;;40.28;18.83;;;;;;;3.63;100.00;102585.34;5117746;28;20060;-48
2021/12/17 03:48:51;;;;;;;39.30;21.40;;;;;;;3.55;100.00;102580.13;5117460;27;20051;-49
2021/12/17 03:51:20;;;;;;;42.78;18.85;;;;;;;3.52;100.00;102590.59;5117164;27;20059;-51
2021/12/17 03:53:51;;;;;;;42.30;19.48;;;;;;;3.54;100.00;102586.22;5117375;28;20058;-49
2021/12/17 03:56:21;;;;;;;42.53;20.02;;;;;;;3.55;100.00;102588.00;5116556;28;20503;-50
2021/12/17 03:58:51;;;;;;;44.92;20.60;;;;;;;3.59;100.00;102589.72;5117707;28;20421;-48
2021/12/17 04:01:21;;;;;;;42.83;21.40;;;;;;;3.56;100.00;102589.72;5116731;28;20074;-50
2021/12/17 04:03:49;;;;;;;44.85;20.10;;;;;;;3.57;100.00;102586.22;5116395;28;20056;-51
2021/12/17 04:06:17;;;;;;;36.75;19.73;;;;;;;3.57;100.00;102596.72;5116826;28;20051;-49
2021/12/17 04:08:45;;;;;;;42.10;19.95;;;;;;;3.50;100.00;102593.22;5116439;27;20055;-51
2021/12/17 04:11:18;;;;;;;44.05;20.52;;;;;;;3.50;100.00;102593.22;5116832;28;20063;-49
2021/12/17 04:13:55;;;;;;;44.08;22.67;;;;;;;3.46;100.00;102580.09;5116081;27;20055;-50
2021/12/17 04:16:27;;;;;;;36.22;19.85;;;;;;;3.47;100.00;102581.84;5116126;28;20070;-51
2021/12/17 04:18:58;;;;;;;50.90;22.73;;;;;;;3.41;100.00;102581.84;5116474;28;20499;-51
2021/12/17 04:21:26;;;;;;;38.35;20.58;;;;;;;3.39;100.00;102586.22;5116274;28;20048;-50
2021/12/17 04:23:55;;;;;;;39.17;20.77;;;;;;;3.42;100.00;102583.59;5115995;28;20058;-49
2021/12/17 04:26:24;;;;;;;44.58;21.67;;;;;;;3.42;100.00;102580.97;5116161;28;20533;-48
2021/12/17 04:28:54;;;;;;;43.72;20.55;;;;;;;3.41;100.00;102592.34;5116476;27;20418;-49
2021/12/17 04:31:26;;;;;;;49.67;21.45;;;;;;;3.33;100.00;102577.47;5115850;28;20055;-51
2021/12/17 04:33:54;;;;;;;42.35;21.05;;;;;;;3.40;100.00;102582.75;5115717;28;20514;-51
2021/12/17 04:36:26;;;;;;;49.88;21.67;;;;;;;3.37;100.00;102590.59;5116312;28;20056;-51
2021/12/17 04:38:56;;;;;;;45.60;22.23;;;;;;;3.34;100.00;102589.69;5117104;28;20059;-51
2021/12/17 04:44:21;;;;;;;44.35;22.77;;;;;;;3.38;100.00;102585.34;5115569;28;20522;-50
2021/12/17 04:46:56;;;;;;;50.10;23.38;;;;;;;3.42;100.00;102591.47;5115793;28;20055;-51
2021/12/17 04:57:43;;;;;;;49.28;22.63;;;;;;;3.48;100.00;102591.47;5116139;28;20078;-49
2021/12/17 05:00:17;;;;;;;52.92;25.05;;;;;;;3.44;100.00;102584.47;5116944;28;20052;-50
2021/12/17 05:02:47;;;;;;;50.05;24.50;;;;;;;3.42;100.00;102587.09;5115198;28;20059;-50
2021/12/17 05:05:16;;;;;;;51.75;24.15;;;;;;;3.42;100.00;102586.22;5115386;28;20112;-51
2021/12/17 05:07:51;;;;;;;44.58;23.42;;;;;;;3.37;100.00;102593.22;5115671;28;20139;-51
2021/12/17 05:10:28;;;;;;;53.60;23.98;;;;;;;3.37;100.00;102595.84;5115419;28;20055;-50
2021/12/17 05:18:31;;;;;;;47.45;24.27;;;;;;;3.40;100.00;102582.75;5116115;28;20067;-50
2021/12/17 05:21:03;;;;;;;49.08;24.58;;;;;;;3.37;100.00;102587.97;5114782;28;20063;-50
2021/12/17 05:23:37;;;;;;;31.23;16.80;;;;;;;3.32;100.00;102587.97;5115491;28;20051;-51
2021/12/17 05:26:07;;;;;;;50.78;24.65;;;;;;;3.31;100.00;102588.81;5114799;28;20056;-51
2021/12/17 05:28:36;;;;;;;51.22;25.33;;;;;;;3.45;100.00;102591.50;5115304;28;20071;-50
2021/12/17 05:31:06;;;;;;;49.20;25.48;;;;;;;3.55;100.00;102588.00;5115302;28;20071;-51
2021/12/17 05:33:34;;;;;;;49.92;24.50;;;;;;;3.57;100.00;102586.22;5115457;28;20063;-48
2021/12/17 05:36:02;;;;;;;45.72;24.40;;;;;;;3.48;100.00;102587.13;5114901;28;20052;-50
2021/12/17 05:38:31;;;;;;;55.33;24.40;;;;;;;3.47;100.00;102584.47;5116036;28;20073;-51
2021/12/17 05:40:59;;;;;;;55.60;24.63;;;;;;;3.45;100.00;102578.38;5115159;28;20121;-51
2021/12/17 05:43:28;;;;;;;46.65;23.95;;;;;;;3.43;100.00;102582.72;5115281;28;20068;-48
2021/12/17 05:46:08;;;;;;;51.92;23.52;;;;;;;3.38;100.00;102587.09;5114998;28;20411;-50
2021/12/17 05:48:38;;;;;;;46.47;23.30;;;;;;;3.37;100.00;102583.59;5115300;28;20082;-51
2021/12/17 05:51:08;;;;;;;47.25;22.77;;;;;;;3.28;100.00;102594.97;5114449;28;20063;-49
2021/12/17 05:53:36;;;;;;;51.53;23.90;;;;;;;3.30;100.00;102597.59;5114334;28;20047;-51
2021/12/17 05:56:05;;;;;;;52.75;24.52;;;;;;;3.35;100.00;102595.84;5114681;28;20051;-52
2021/12/17 05:58:34;;;;;;;52.10;24.52;;;;;;;3.41;100.00;102594.97;5114726;28;20067;-51
2021/12/17 06:01:02;;;;;;;51.38;24.92;;;;;;;3.41;100.00;102593.19;5115203;28;20055;-48
2021/12/17 06:03:30;;;;;;;52.72;23.90;;;;;;;3.40;100.00;102588.00;5114303;28;20055;-51
2021/12/17 06:06:00;;;;;;;52.53;23.55;;;;;;;3.46;100.00;102601.09;5114780;28;20051;-52
2021/12/17 06:08:28;;;;;;;49.35;23.95;;;;;;;3.36;100.00;102597.56;5114734;28;20067;-48
2021/12/17 06:10:56;;;;;;;50.72;24.77;;;;;;;3.35;100.00;102595.84;5114738;28;20496;-51
2021/12/17 06:13:24;;;;;;;54.85;24.50;;;;;;;3.32;100.00;102596.69;5114406;28;20431;-50
2021/12/17 06:15:52;;;;;;;51.63;24.08;;;;;;;3.38;100.00;102597.56;5114700;28;20052;-49
2021/12/17 06:18:20;;;;;;;52.13;24.58;;;;;;;3.44;100.00;102597.59;5114988;28;20130;-49
2021/12/17 06:20:49;;;;;;;59.13;24.95;;;;;;;3.44;100.00;102600.22;5115516;28;20435;-51
2021/12/17 06:23:18;;;;;;;55.95;26.25;;;;;;;3.42;100.00;102592.34;5114367;28;20060;-49
2021/12/17 06:25:46;;;;;;;56.08;25.08;;;;;;;3.51;100.00;102597.63;5114283;28;20056;-51
2021/12/17 06:28:16;;;;;;;53.15;24.45;;;;;;;3.51;100.00;102599.34;5114286;28;20060;-50
2021/12/17 06:30:44;;;;;;;60.35;25.75;;;;;;;3.56;100.00;102594.09;5114719;28;20078;-51
2021/12/17 06:33:13;;;;;;;53.22;26.13;;;;;;;3.57;100.00;102594.09;5118481;28;20062;-51
2021/12/17 06:35:42;;;;;;;60.53;26.90;;;;;;;3.61;100.00;102598.47;5119220;28;20181;-48
2021/12/17 06:38:10;;;;;;;49.22;25.05;;;;;;;3.61;100.00;102590.59;5118684;28;20405;-51
2021/12/17 06:40:39;;;;;;;66.13;27.05;;;;;;;3.58;100.00;102590.63;5118079;28;20071;-52
2021/12/17 06:43:08;;;;;;;54.70;24.30;;;;;;;3.53;100.00;102589.72;5118356;28;20072;-52
2021/12/17 06:45:47;;;;;;;61.80;26.85;;;;;;;3.51;100.00;102583.59;5117988;28;20052;-51
2021/12/17 06:48:17;;;;;;;65.32;27.02;;;;;;;3.53;100.00;102584.47;5118725;28;20059;-51
2021/12/17 06:59:20;;;;;;;63.75;26.73;;;;;;;3.49;100.00;102582.72;5118035;28;20064;-49
2021/12/17 07:08:13;;;;;;;59.58;26.05;;;;;;;3.43;100.00;102591.47;5111151;28;20063;-52
2021/12/17 07:10:29;;;;;;;64.10;26.40;;;;;;;3.37;100.00;102582.72;5118062;28;20145;-52
2021/12/17 07:21:28;;;;;;;61.80;26.02;;;;;;;3.37;100.00;102577.47;5107042;28;20086;-50
2021/12/17 07:40:43;;;;;;;50.78;25.25;;;;;;;3.13;100.00;102589.69;5117672;28;20063;-50
2021/12/17 07:43:21;;;;;;;51.92;24.20;;;;;;;3.09;100.00;102585.28;5116926;28;20071;-52
2021/12/17 07:45:51;;;;;;;58.70;23.67;;;;;;;3.07;100.00;102584.44;5116716;28;20059;-52
2021/12/17 07:48:20;;;;;;;58.58;26.60;;;;;;;3.05;100.00;102586.19;5117173;28;20109;-52
2021/12/17 07:50:48;;;;;;;51.30;23.95;;;;;;;3.05;100.00;102591.41;5117187;27;20058;-50
2021/12/17 07:53:16;;;;;;;66.97;25.20;;;;;;;3.04;100.00;102592.28;5116537;27;20051;-50
2021/12/17 07:55:44;;;;;;;61.50;25.80;;;;;;;3.05;100.00;102591.41;5116990;28;20062;-51
2021/12/17 07:58:13;;;;;;;60.13;24.77;;;;;;;3.03;100.00;102587.91;5116540;28;20058;-49
2021/12/17 08:00:41;;;;;;;49.38;23.25;;;;;;;3.02;100.00;102597.50;5116434;28;20070;-50
2021/12/17 08:03:14;;;;;;;57.63;25.48;;;;;;;3.05;100.00;102594.03;5116580;28;20052;-49
2021/12/17 08:05:43;;;;;;;50.10;24.83;;;;;;;3.05;100.00;102586.19;5116347;28;20138;-50
2021/12/17 08:08:12;;;;;;;63.15;26.50;;;;;;;3.02;100.00;102586.16;5116522;28;20056;-49
2021/12/17 08:10:40;;;;;;;53.38;23.88;;;;;;;3.05;100.00;102586.19;5116480;28;20060;-49
2021/12/17 08:13:14;;;;;;;63.78;25.05;;;;;;;3.08;100.00;102589.66;5117195;28;20371;-52
2021/12/17 08:15:59;;;;;;;64.40;25.90;;;;;;;3.13;100.00;102595.81;5117262;28;20064;-52
2021/12/17 08:18:50;;;;;;;53.47;24.70;;;;;;;3.21;100.00;102597.56;5116092;28;20508;-49
2021/12/17 08:27:09;;;;;;;59.63;25.27;;;;;;;3.45;100.00;102601.97;5116154;28;20052;-50
2021/12/17 08:32:19;;;;;;;61.97;26.88;;;;;;;3.47;100.00;102606.34;5117207;27;20074;-49
2021/12/17 08:34:49;;;;;;;52.95;25.27;;;;;;;3.54;100.00;102604.59;5116147;28;20051;-48
2021/12/17 08:37:18;;;;;;;58.97;25.30;;;;;;;3.58;100.00;102603.75;5115892;28;20604;-51
2021/12/17 08:39:46;;;;;;;66.13;27.23;;;;;;;3.64;100.00;102602.84;5116987;28;20056;-50
2021/12/17 08:42:14;;;;;;;54.03;26.15;;;;;;;3.68;100.00;102608.13;5115838;28;20593;-48
2021/12/17 08:44:42;;;;;;;58.08;25.88;;;;;;;3.84;100.00;102605.47;5115542;27;20141;-51
2021/12/17 08:47:11;;;;;;;59.97;26.55;;;;;;;3.98;100.00;102602.84;5115783;28;20051;-49
2021/12/17 08:49:40;;;;;;;61.47;26.90;;;;;;;4.15;100.00;102600.19;5115689;28;20066;-51
2021/12/17 08:52:10;;;;;;;71.65;29.83;;;;;;;4.23;100.00;102593.16;5116248;27;20052;-50
2021/12/17 08:54:38;;;;;;;64.65;27.80;;;;;;;4.35;100.00;102593.13;5114510;28;20060;-52
2021/12/17 08:57:07;;;;;;;73.10;29.70;;;;;;;4.53;100.00;102588.69;5116681;28;20059;-51
2021/12/17 08:59:35;;;;;;;76.45;30.92;;;;;;;4.66;100.00;102585.16;5116532;28;20059;-49
2021/12/17 09:02:04;;;;;;;72.78;30.65;;;;;;;4.82;100.00;102589.47;5115798;28;20141;-49
2021/12/17 09:04:33;;;;;;;63.47;28.98;;;;;;;5.06;100.00;102586.69;5116068;28;20117;-49
2021/12/17 09:07:01;;;;;;;82.32;32.28;;;;;;;5.22;100.00;102590.97;5116434;28;20071;-49
2021/12/17 09:09:30;;;;;;;74.18;30.90;;;;;;;5.31;100.00;102588.28;5115569;28;20063;-49
2021/12/17 09:11:59;;;;;;;76.75;31.23;;;;;;;5.52;100.00;102584.59;5116943;28;20052;-49
2021/12/17 09:14:28;;;;;;;74.85;31.10;;;;;;;5.61;100.00;102590.69;5114914;28;20051;-49
2021/12/17 09:16:56;;;;;;;75.43;32.60;;;;;;;6.14;100.00;102584.09;5115228;28;20062;-49
2021/12/17 09:19:25;;;;;;;64.72;30.60;;;;;;;6.47;100.00;102585.47;5115151;28;20052;-50
2021/12/17 09:21:53;;;;;;;67.72;29.63;;;;;;;6.77;100.00;102579.81;5115456;28;20058;-50
2021/12/17 09:24:21;;;;;;;62.55;28.98;;;;;;;7.27;100.00;102583.50;5116097;28;20067;-49
2021/12/17 09:26:51;;;;;;;49.85;25.10;;;;;;;7.56;100.00;102590.09;5115083;28;20503;-49
2021/12/17 09:29:19;;;;;;;49.70;24.15;;;;;;;8.15;100.00;102582.91;5115302;28;20052;-50
2021/12/17 09:31:47;;;;;;;50.03;22.92;;;;;;;8.79;100.00;102581.66;5115253;28;20066;-49
2021/12/17 09:34:15;;;;;;;35.08;18.90;;;;;;;9.57;100.00;102576.34;5115890;28;20056;-49
2021/12/17 09:36:43;;;;;;;39.28;16.30;;;;;;;10.38;100.00;102568.88;5115193;28;20537;-49
2021/12/17 09:39:13;;;;;;;27.15;14.82;;;;;;;11.15;100.00;102579.84;5115078;28;20055;-50
2021/12/17 09:41:43;;;;;;;28.25;14.13;;;;;;;11.97;100.00;102578.94;5114787;28;20062;-50
2021/12/17 09:44:15;;;;;;;23.98;12.80;;;;;;;13.23;100.00;102576.88;5114602;28;20055;-51
2021/12/17 09:46:45;;;;;;;20.38;11.75;;;;;;;13.98;100.00;102577.34;5114874;28;20067;-51
2021/12/17 09:49:18;;;;;;;22.58;10.75;;;;;;;15.10;96.08;102579.38;5115400;28;20422;-50
2021/12/17 09:51:48;;;;;;;19.27;11.02;;;;;;;16.41;84.41;102575.38;5114990;28;20060;-51
2021/12/17 09:54:17;;;;;;;21.90;12.63;;;;;;;17.22;66.11;102588.78;5115035;28;20156;-50
2021/12/17 09:56:45;;;;;;;23.58;11.15;;;;;;;17.22;66.11;102588.78;5114896;28;20082;-51
2021/12/17 09:59:16;;;;;;;20.10;10.25;;;;;;;18.84;49.20;102590.66;5114391;28;20064;-53
2021/12/17 10:01:45;;;;;;;23.85;11.65;;;;;;;19.40;47.30;102595.97;5114667;28;20532;-51
2021/12/17 10:04:19;;;;;;;16.73;10.48;;;;;;;19.17;46.62;102594.81;5114361;28;20052;-51
2021/12/17 10:06:49;;;;;;;22.95;10.63;;;;;;;19.89;47.01;102594.50;5121657;28;20059;-50
2021/12/17 10:09:17;;;;;;;21.60;10.45;;;;;;;20.70;44.13;102598.72;5121293;27;20055;-50
2021/12/17 10:12:01;;;;;;;18.98;11.20;;;;;;;20.78;44.09;102600.88;5121968;27;20090;-51
2021/12/17 10:14:32;;;;;;;22.27;11.32;;;;;;;20.66;41.49;102599.94;5120523;27;20070;-50
2021/12/17 10:17:07;;;;;;;17.98;10.88;;;;;;;19.83;42.97;102597.63;5122119;27;20055;-51
2021/12/17 10:19:47;;;;;;;15.80;9.90;;;;;;;20.85;41.86;102598.59;5121749;27;20070;-51
2021/12/17 10:22:16;;;;;;;21.50;10.52;;;;;;;21.66;39.97;102594.38;5122412;27;20059;-50
2021/12/17 10:24:46;;;;;;;22.50;11.90;;;;;;;21.62;40.08;102590.16;5122151;27;20051;-49
2021/12/17 10:27:21;;;;;;;18.98;10.75;;;;;;;20.69;41.29;102590.72;5122262;27;20094;-48
2021/12/17 10:29:51;;;;;;;21.30;10.48;;;;;;;21.45;39.49;102581.50;5121069;27;20055;-50
2021/12/17 10:32:21;;;;;;;24.42;10.90;;;;;;;21.22;39.95;102582.38;5121455;27;20054;-51
2021/12/17 10:35:03;;;;;;;18.25;11.27;;;;;;;21.27;40.56;102583.75;5121655;27;20410;-51
2021/12/17 10:37:33;;;;;;;25.50;10.85;;;;;;;22.19;37.63;102575.81;5122320;27;20056;-51
2021/12/17 10:40:02;;;;;;;17.25;10.65;;;;;;;22.20;38.05;102585.63;5121051;27;20067;-51
2021/12/17 10:42:34;;;;;;;18.75;10.65;;;;;;;22.26;37.17;102579.75;5121219;27;20052;-51
2021/12/17 10:45:11;;;;;;;20.75;10.85;;;;;;;22.10;38.07;102583.78;5121483;27;20056;-51
2021/12/17 10:47:47;;;;;;;16.10;10.88;;;;;;;21.48;39.05;102578.56;5121007;27;20526;-51
2021/12/17 10:50:25;;;;;;;18.42;11.07;;;;;;;21.84;37.91;102568.66;5121793;27;20068;-51
2021/12/17 10:52:56;;;;;;;19.33;10.27;;;;;;;22.54;37.30;102566.75;5120719;27;20055;-52
2021/12/17 10:55:26;;;;;;;21.27;10.98;;;;;;;22.82;37.11;102557.25;5121758;27;20086;-50
2021/12/17 10:57:59;;;;;;;21.85;10.73;;;;;;;23.51;35.42;102571.44;5121163;27;20437;-51
2021/12/17 11:00:29;;;;;;;15.43;10.40;;;;;;;23.15;36.05;102566.31;5120936;27;20055;-51
2021/12/17 11:03:03;;;;;;;18.80;11.10;;;;;;;23.25;35.64;102555.56;5121121;27;20052;-50
2021/12/17 11:05:34;;;;;;;20.23;10.82;;;;;;;23.55;34.47;102549.41;5122279;27;20067;-51
2021/12/17 11:08:19;;;;;;;15.80;11.15;;;;;;;23.42;35.06;102554.13;5120878;27;20052;-51
2021/12/17 11:10:56;;;;;;;17.55;10.85;;;;;;;23.67;35.14;102544.78;5121693;27;20059;-51
2021/12/17 11:13:25;;;;;;;19.30;11.25;;;;;;;23.61;34.12;102553.41;5120494;27;20055;-51
2021/12/17 11:15:55;;;;;;;18.00;10.68;;;;;;;23.62;34.39;102547.03;5121817;27;20058;-51
2021/12/17 11:18:26;;;;;;;21.73;10.77;;;;;;;23.95;34.20;102542.41;5117722;27;20056;-51
2021/12/17 11:20:56;;;;;;;20.83;11.07;;;;;;;23.95;34.20;102542.41;5117430;28;20116;-51
2021/12/17 11:23:27;;;;;;;18.38;11.23;;;;;;;22.37;35.42;102527.56;5118569;28;20122;-51
2021/12/17 11:25:55;;;;;;;20.45;11.45;;;;;;;23.10;34.75;102543.28;5117750;28;20062;-51
2021/12/17 11:28:24;;;;;;;15.57;10.73;;;;;;;24.17;34.12;102540.50;5117690;28;20068;-52
2021/12/17 11:30:54;;;;;;;18.90;11.35;;;;;;;24.09;32.82;102533.91;5117304;28;20063;-51
2021/12/17 11:33:23;;;;;;;18.42;11.10;;;;;;;24.36;32.59;102520.75;5118188;28;20055;-51
2021/12/17 11:35:53;;;;;;;18.60;11.00;;;;;;;25.04;31.94;102523.63;5117082;27;20070;-52
2021/12/17 11:38:29;;;;;;;21.08;11.40;;;;;;;25.04;31.94;102523.63;5117196;27;20062;-52
2021/12/17 11:41:03;;;;;;;22.15;11.30;;;;;;;25.45;30.76;102520.78;5118309;27;20052;-52
2021/12/17 11:43:53;;;;;;;20.48;11.65;;;;;;;25.26;30.91;102517.09;5118002;28;20086;-53
2021/12/17 11:46:26;;;;;;;17.10;10.77;;;;;;;25.35;31.06;102509.94;5116889;28;20062;-51
2021/12/17 11:48:56;;;;;;;18.52;10.70;;;;;;;26.00;30.22;102509.25;5117539;28;20055;-51
2021/12/17 11:51:28;;;;;;;19.48;11.88;;;;;;;26.23;29.60;102505.16;5116679;28;20062;-51
2021/12/17 11:54:04;;;;;;;18.00;10.45;;;;;;;26.05;30.01;102498.78;5117681;28;20071;-51
2021/12/17 11:56:41;;;;;;;22.83;10.98;;;;;;;26.35;29.40;102485.91;5116486;28;20051;-51
2021/12/17 11:59:12;;;;;;;17.90;10.40;;;;;;;27.01;28.56;102484.75;5116697;28;20541;-51
2021/12/17 12:02:02;;;;;;;20.58;10.55;;;;;;;27.57;26.59;102477.22;5117027;28;20052;-51
2021/12/17 12:04:54;;;;;;;20.92;11.10;;;;;;;27.81;26.91;102471.06;5116779;28;20494;-51
2021/12/17 12:07:33;;;;;;;17.02;11.18;;;;;;;26.96;28.33;102471.59;5116683;28;20134;-51
2021/12/17 12:10:22;;;;;;;26.52;12.38;;;;;;;24.96;30.97;102471.91;5117983;28;20052;-52
2021/12/17 12:12:58;;;;;;;18.23;11.55;;;;;;;24.58;31.44;102462.72;5116821;28;20059;-51
2021/12/17 12:15:38;;;;;;;20.73;12.40;;;;;;;25.47;30.98;102464.47;5117419;28;20059;-51
2021/12/17 12:18:13;;;;;;;21.02;12.30;;;;;;;26.36;28.77;102457.69;5116019;28;20101;-51
2021/12/17 12:20:52;;;;;;;21.60;12.98;;;;;;;26.20;29.55;102455.66;5117453;28;20087;-51
2021/12/17 12:23:23;;;;;;;22.13;12.27;;;;;;;26.71;28.66;102458.78;5115986;28;20109;-51
2021/12/17 12:26:33;;;;;;;20.98;12.80;;;;;;;26.21;29.64;102458.22;5115962;28;20533;-53
2021/12/17 12:29:05;;;;;;;23.02;13.57;;;;;;;26.04;30.50;102459.00;5114759;28;20066;-52
2021/12/17 12:31:46;;;;;;;23.08;12.35;;;;;;;26.41;28.88;102449.94;5116649;28;20403;-52
2021/12/17 12:34:17;;;;;;;26.17;12.23;;;;;;;26.81;28.63;102454.13;5116033;28;20062;-51
2021/12/17 12:37:04;;;;;;;24.90;12.07;;;;;;;26.52;28.74;102447.00;5115966;28;20116;-53
2021/12/17 12:39:35;;;;;;;20.20;12.70;;;;;;;25.13;30.33;102437.75;5115760;28;20055;-51
2021/12/17 12:42:06;;;;;;;24.98;13.10;;;;;;;24.87;30.75;102442.94;5116346;28;20070;-52
2021/12/17 12:45:09;;;;;;;21.77;12.95;;;;;;;24.47;31.23;102433.84;5115635;28;20059;-51
2021/12/17 12:47:51;;;;;;;23.85;14.85;;;;;;;24.73;31.10;102434.22;5116472;28;20067;-51
2021/12/17 12:50:22;;;;;;;;;;;;;;;25.16;30.50;102435.59;5117080;28;20138;-52
2021/12/17 12:52:53;;;;;;;23.60;14.07;;;;;;;26.71;28.66;102426.97;5116893;28;19920;-54
2021/12/17 12:55:26;;;;;;;21.42;13.30;;;;;;;25.75;29.96;102419.19;5115302;28;20062;-51
2021/12/17 12:58:02;;;;;;;25.63;14.30;;;;;;;24.84;31.07;102415.06;5116177;28;20051;-52
2021/12/17 13:00:32;;;;;;;32.40;19.10;;;;;;;25.11;30.44;102421.59;5115999;28;20055;-51
2021/12/17 13:03:02;;;;;;;26.13;14.88;;;;;;;26.34;29.22;102422.47;5116035;28;20055;-52
2021/12/17 13:05:33;;;;;;;24.75;15.15;;;;;;;25.80;29.23;102425.03;5115392;28;20146;-52
2021/12/17 13:08:03;;;;;;;27.20;15.82;;;;;;;25.31;30.15;102422.47;5115501;28;20066;-51
2021/12/17 13:10:33;;;;;;;27.08;16.27;;;;;;;24.01;32.00;102417.19;5115369;28;20502;-51
2021/12/17 13:13:07;;;;;;;29.60;16.45;;;;;;;24.01;32.00;102417.19;5115336;28;20079;-51
2021/12/17 13:15:44;;;;;;;28.15;16.45;;;;;;;22.03;36.00;102403.22;5116207;28;20065;-51
2021/12/17 13:21:20;;;;;;;29.15;16.35;;;;;;;19.11;42.30;102401.53;5070642;27;20063;-53
2021/12/17 13:23:52;;;;;;;29.65;16.80;;;;;;;18.46;43.95;102403.16;5115449;28;20058;-50
2021/12/17 13:26:24;;;;;;;33.63;18.08;;;;;;;17.55;46.25;102387.44;5115921;28;20451;-51
2021/12/17 13:28:56;;;;;;;31.80;18.15;;;;;;;16.99;47.85;102389.91;5114806;28;20055;-50
2021/12/17 13:31:34;;;;;;;33.42;18.50;;;;;;;15.76;51.82;102378.13;5115346;28;20051;-50
2021/12/17 13:34:06;;;;;;;38.15;19.40;;;;;;;15.76;51.82;102378.13;5115453;28;20077;-50
2021/12/17 13:36:36;;;;;;;31.00;18.52;;;;;;;14.85;56.01;102375.69;5115523;28;20411;-50
2021/12/17 13:39:06;;;;;;;35.05;19.80;;;;;;;14.17;58.60;102377.22;5114503;28;20062;-50
2021/12/17 13:41:42;;;;;;;39.22;20.23;;;;;;;13.28;62.19;102374.13;5114671;28;20066;-51
2021/12/17 13:44:34;;;;;;;37.55;18.58;;;;;;;13.21;63.72;102368.19;5114580;28;20052;-50
2021/12/17 13:47:15;;;;;;;39.15;19.63;;;;;;;12.76;64.89;102369.22;5115039;28;20422;-50
2021/12/17 13:49:46;;;;;;;40.83;22.52;;;;;;;12.76;64.89;102369.22;5115682;28;20057;-52
2021/12/17 13:52:16;;;;;;;46.95;21.90;;;;;;;11.60;70.90;102363.09;5114693;28;20503;-50
2021/12/17 13:54:47;;;;;;;42.10;21.23;;;;;;;11.27;72.53;102363.41;5115327;28;20056;-50
2021/12/17 13:57:16;;;;;;;39.30;21.33;;;;;;;10.64;76.27;102360.25;5115012;28;20059;-50
2021/12/17 13:59:46;;;;;;;41.00;21.27;;;;;;;10.58;77.98;102361.31;5114771;28;20541;-52